Time;durP1;ratioP1;P1;durP2;ratioP2;P2;SDS_P1;SDS_P2;PMS_P1;PMS_P2;Temp;Humidity;BMP_temperature;BMP_pressure;BME280_temperature;BME280_humidity;BME280_pressure;Samples;Min_cycle;Max_cycle;Signal;HPM_P1;HPM_P2
2021/11/23 00:00:06;;;;;;;29.45;12.70;;;;;;;;;;4964945;28;20092;-67
2021/11/23 00:02:31;;;;;;;24.80;12.50;;;;;;;;;;4973870;28;20027;-68
2021/11/23 00:04:56;;;;;;;36.33;13.98;;;;;;;;;;4968394;28;20023;-68
2021/11/23 00:07:21;;;;;;;35.88;14.48;;;;;;;;;;4970979;28;20066;-68
2021/11/23 00:09:47;;;;;;;32.05;12.95;;;;;;;;;;4967282;28;20105;-67
2021/11/23 00:12:12;;;;;;;32.47;12.90;;;;;;;;;;4971548;28;20475;-68
2021/11/23 00:14:38;;;;;;;33.28;14.32;;;;;;;;;;4970203;28;20054;-68
2021/11/23 00:17:03;;;;;;;29.90;13.13;;;;;;;;;;4970588;28;20554;-68
2021/11/23 00:19:28;;;;;;;32.15;12.93;;;;;;;;;;4970622;28;20022;-68
2021/11/23 00:21:53;;;;;;;27.80;12.95;;;;;;;;;;4966738;28;20031;-65
2021/11/23 00:24:19;;;;;;;28.38;11.35;;;;;;;;;;4969406;28;20026;-68
2021/11/23 00:26:44;;;;;;;34.85;13.68;;;;;;;;;;4966200;28;20022;-65
2021/11/23 00:29:10;;;;;;;26.67;11.85;;;;;;;;;;4968327;28;20037;-68
2021/11/23 00:31:35;;;;;;;25.90;11.13;;;;;;;;;;4970718;28;20407;-66
2021/11/23 00:34:00;;;;;;;29.55;12.27;;;;;;;;;;4974874;28;20038;-68
2021/11/23 00:36:25;;;;;;;31.30;12.60;;;;;;;;;;4968387;28;20019;-67
2021/11/23 00:38:51;;;;;;;29.90;11.15;;;;;;;;;;4973169;28;20077;-67
2021/11/23 00:41:17;;;;;;;26.90;11.40;;;;;;;;;;4974016;28;20030;-67
2021/11/23 00:43:43;;;;;;;23.58;11.90;;;;;;;;;;4973951;28;20023;-68
2021/11/23 00:46:08;;;;;;;29.63;12.27;;;;;;;;;;4971984;28;20448;-66
2021/11/23 00:48:33;;;;;;;30.00;12.07;;;;;;;;;;4972368;28;20018;-68
2021/11/23 00:50:58;;;;;;;28.85;12.73;;;;;;;;;;4968502;28;20085;-68
2021/11/23 00:53:24;;;;;;;27.83;12.35;;;;;;;;;;4968462;28;20446;-66
2021/11/23 00:55:49;;;;;;;28.33;12.50;;;;;;;;;;4974768;28;20046;-67
2021/11/23 00:58:14;;;;;;;23.10;11.48;;;;;;;;;;4973474;28;20062;-67
2021/11/23 01:00:40;;;;;;;26.85;11.73;;;;;;;;;;4974358;28;20088;-66
2021/11/23 01:03:05;;;;;;;28.20;12.35;;;;;;;;;;4974783;28;20054;-67
2021/11/23 01:05:30;;;;;;;28.52;11.38;;;;;;;;;;4975215;28;20097;-66
2021/11/23 01:07:55;;;;;;;26.40;12.25;;;;;;;;;;4975449;28;20039;-68
2021/11/23 01:10:22;;;;;;;29.33;12.85;;;;;;;;;;4974472;28;20091;-67
2021/11/23 01:12:47;;;;;;;24.90;11.07;;;;;;;;;;4974610;28;20445;-68
2021/11/23 01:15:12;;;;;;;25.17;11.23;;;;;;;;;;4972147;28;20118;-66
2021/11/23 01:17:37;;;;;;;28.63;11.95;;;;;;;;;;4973450;28;20015;-67
2021/11/23 01:20:04;;;;;;;41.42;12.15;;;;;;;;;;4973362;28;20368;-68
2021/11/23 01:22:29;;;;;;;26.60;11.88;;;;;;;;;;4972988;28;20491;-67
2021/11/23 01:24:54;;;;;;;27.33;12.65;;;;;;;;;;4978890;28;20027;-68
2021/11/23 01:27:19;;;;;;;28.95;11.65;;;;;;;;;;4974345;28;20026;-68
2021/11/23 01:29:44;;;;;;;25.83;11.80;;;;;;;;;;4974363;28;20505;-68
2021/11/23 01:32:10;;;;;;;25.67;11.50;;;;;;;;;;4979979;28;20033;-68
2021/11/23 01:34:35;;;;;;;25.75;11.05;;;;;;;;;;4986990;28;20057;-68
2021/11/23 01:37:00;;;;;;;26.27;12.13;;;;;;;;;;4974601;28;20029;-66
2021/11/23 01:39:26;;;;;;;28.15;12.45;;;;;;;;;;4974798;28;20098;-67
2021/11/23 01:41:51;;;;;;;26.05;12.07;;;;;;;;;;4992082;28;20022;-68
2021/11/23 01:44:16;;;;;;;28.63;12.90;;;;;;;;;;4979572;28;20368;-68
2021/11/23 01:46:41;;;;;;;25.02;11.93;;;;;;;;;;4974604;28;20027;-67
2021/11/23 01:49:07;;;;;;;33.13;12.60;;;;;;;;;;4987969;28;20018;-68
2021/11/23 01:51:32;;;;;;;27.50;12.18;;;;;;;;;;4974384;28;20418;-67
2021/11/23 01:53:57;;;;;;;31.38;12.73;;;;;;;;;;4974775;28;20476;-68
2021/11/23 01:56:23;;;;;;;27.27;11.38;;;;;;;;;;4974288;28;20031;-67
2021/11/23 01:58:48;;;;;;;34.22;12.68;;;;;;;;;;4972668;28;20041;-67
2021/11/23 02:01:14;;;;;;;35.00;12.95;;;;;;;;;;4973807;28;20019;-68
2021/11/23 02:03:39;;;;;;;35.75;13.43;;;;;;;;;;4974578;28;20022;-68
2021/11/23 02:06:05;;;;;;;34.70;14.70;;;;;;;;;;4980790;28;20031;-67
2021/11/23 02:08:30;;;;;;;30.55;12.27;;;;;;;;;;4975177;28;20030;-67
2021/11/23 02:10:56;;;;;;;32.30;13.10;;;;;;;;;;4972447;28;20082;-67
2021/11/23 02:13:21;;;;;;;29.08;12.82;;;;;;;;;;4973886;28;20034;-68
2021/11/23 02:15:46;;;;;;;30.30;13.20;;;;;;;;;;4974072;28;20023;-67
2021/11/23 02:18:16;;;;;;;31.17;13.95;;;;;;;;;;4983887;28;20101;-67
2021/11/23 02:20:43;;;;;;;34.63;15.55;;;;;;;;;;4984347;28;20508;-68
2021/11/23 02:23:08;;;;;;;34.72;15.20;;;;;;;;;;4974028;28;20448;-68
2021/11/23 02:25:33;;;;;;;31.02;13.00;;;;;;;;;;4986861;28;20088;-67
2021/11/23 02:27:58;;;;;;;36.47;13.55;;;;;;;;;;4972476;28;20027;-67
2021/11/23 02:30:23;;;;;;;28.73;12.75;;;;;;;;;;4973085;28;20677;-68
2021/11/23 02:32:52;;;;;;;31.52;12.73;;;;;;;;;;4973904;28;20034;-66
2021/11/23 02:35:21;;;;;;;33.72;13.85;;;;;;;;;;4973454;28;20038;-67
2021/11/23 02:37:48;;;;;;;32.35;13.63;;;;;;;;;;4973828;28;20019;-67
2021/11/23 02:40:14;;;;;;;32.40;13.50;;;;;;;;;;4992059;28;20030;-66
2021/11/23 02:42:40;;;;;;;31.30;13.13;;;;;;;;;;4983086;28;20026;-66
2021/11/23 02:45:06;;;;;;;29.17;12.50;;;;;;;;;;4977771;28;20675;-67
2021/11/23 02:47:32;;;;;;;30.05;12.40;;;;;;;;;;4992361;28;20014;-67
2021/11/23 02:49:57;;;;;;;26.70;12.10;;;;;;;;;;4974703;28;20022;-67
2021/11/23 02:52:23;;;;;;;34.13;13.73;;;;;;;;;;4973043;28;20093;-68
2021/11/23 02:54:58;;;;;;;27.63;12.52;;;;;;;;;;4989008;28;20060;-67
2021/11/23 02:57:27;;;;;;;33.53;13.65;;;;;;;;;;4984930;28;20019;-68
2021/11/23 02:59:52;;;;;;;37.35;15.05;;;;;;;;;;4972586;28;20023;-67
2021/11/23 03:02:17;;;;;;;27.27;13.02;;;;;;;;;;4971896;28;20542;-68
2021/11/23 03:04:48;;;;;;;29.17;12.93;;;;;;;;;;4979258;28;20109;-67
2021/11/23 03:07:13;;;;;;;31.23;12.90;;;;;;;;;;4992179;28;20097;-67
2021/11/23 03:09:38;;;;;;;32.25;13.68;;;;;;;;;;4973395;28;20130;-67
2021/11/23 03:12:04;;;;;;;34.00;13.10;;;;;;;;;;4972713;28;20411;-68
2021/11/23 03:14:29;;;;;;;27.52;12.50;;;;;;;;;;4987313;28;20031;-68
2021/11/23 03:16:54;;;;;;;29.88;13.15;;;;;;;;;;4972857;28;20503;-67
2021/11/23 03:19:19;;;;;;;31.95;12.95;;;;;;;;;;4972886;28;20105;-68
2021/11/23 03:21:45;;;;;;;31.88;11.88;;;;;;;;;;4972762;28;20023;-66
2021/11/23 03:24:10;;;;;;;23.60;11.02;;;;;;;;;;4974994;28;20034;-67
2021/11/23 03:26:36;;;;;;;34.97;12.38;;;;;;;;;;4978408;28;20380;-68
2021/11/23 03:29:01;;;;;;;26.90;11.55;;;;;;;;;;4986558;28;20088;-66
2021/11/23 03:31:26;;;;;;;29.63;12.10;;;;;;;;;;4976748;28;20125;-67
2021/11/23 03:33:51;;;;;;;29.27;11.60;;;;;;;;;;4972568;28;20022;-67
2021/11/23 03:36:16;;;;;;;32.60;12.77;;;;;;;;;;4972238;28;20479;-68
2021/11/23 03:38:42;;;;;;;27.95;12.93;;;;;;;;;;4972506;28;20098;-67
2021/11/23 03:41:07;;;;;;;28.80;12.57;;;;;;;;;;4969180;28;20015;-68
2021/11/23 03:43:32;;;;;;;33.47;13.38;;;;;;;;;;4969923;28;20376;-67
2021/11/23 03:45:57;;;;;;;33.17;12.90;;;;;;;;;;4971605;28;20030;-67
2021/11/23 03:48:23;;;;;;;28.02;12.98;;;;;;;;;;4969945;28;20061;-67
2021/11/23 03:50:48;;;;;;;37.95;13.55;;;;;;;;;;4969870;28;20111;-68
2021/11/23 03:53:13;;;;;;;29.75;13.10;;;;;;;;;;4970135;28;20025;-67
2021/11/23 03:55:40;;;;;;;30.35;12.60;;;;;;;;;;4970221;28;20506;-67
2021/11/23 03:58:05;;;;;;;33.20;13.63;;;;;;;;;;4980415;28;20690;-66
2021/11/23 04:00:30;;;;;;;32.35;13.60;;;;;;;;;;4969115;28;20025;-67
2021/11/23 04:02:56;;;;;;;31.98;13.50;;;;;;;;;;4970056;28;20033;-67
2021/11/23 04:05:21;;;;;;;32.38;13.25;;;;;;;;;;4970110;28;20018;-67
2021/11/23 04:07:47;;;;;;;35.00;13.30;;;;;;;;;;4975258;28;20019;-67
2021/11/23 04:10:13;;;;;;;33.40;13.85;;;;;;;;;;4981487;28;20037;-67
2021/11/23 04:12:38;;;;;;;32.10;13.10;;;;;;;;;;4985719;28;20023;-66
2021/11/23 04:15:05;;;;;;;32.10;14.60;;;;;;;;;;4979292;28;20034;-68
2021/11/23 04:17:30;;;;;;;31.08;13.88;;;;;;;;;;4972026;28;20120;-67
2021/11/23 04:19:56;;;;;;;33.58;12.85;;;;;;;;;;4979309;28;20515;-68
2021/11/23 04:22:21;;;;;;;35.03;12.30;;;;;;;;;;4986964;28;20042;-66
2021/11/23 04:24:46;;;;;;;30.80;14.07;;;;;;;;;;4991233;28;20419;-67
2021/11/23 04:27:11;;;;;;;35.63;14.02;;;;;;;;;;4980131;28;20097;-67
2021/11/23 04:29:37;;;;;;;37.03;15.32;;;;;;;;;;4986287;28;20027;-68
2021/11/23 04:32:02;;;;;;;35.08;13.43;;;;;;;;;;4971525;28;20760;-67
2021/11/23 04:34:27;;;;;;;35.40;14.65;;;;;;;;;;4983090;28;20026;-66
2021/11/23 04:36:52;;;;;;;37.55;14.15;;;;;;;;;;4977620;28;20949;-67
2021/11/23 04:39:18;;;;;;;36.50;14.52;;;;;;;;;;4969680;28;20027;-67
2021/11/23 04:41:43;;;;;;;38.72;14.93;;;;;;;;;;4968919;28;20034;-67
2021/11/23 04:44:08;;;;;;;33.53;13.27;;;;;;;;;;4969726;28;20388;-66
2021/11/23 04:46:34;;;;;;;31.70;13.70;;;;;;;;;;4969841;28;20034;-65
2021/11/23 04:48:59;;;;;;;38.35;14.20;;;;;;;;;;4969765;28;20031;-67
2021/11/23 04:51:24;;;;;;;33.88;13.45;;;;;;;;;;4969222;28;20089;-67
2021/11/23 04:53:50;;;;;;;35.33;13.50;;;;;;;;;;4969568;28;20033;-67
2021/11/23 04:56:16;;;;;;;34.08;14.07;;;;;;;;;;4969624;28;20023;-67
2021/11/23 04:58:41;;;;;;;33.03;15.00;;;;;;;;;;4968986;28;20142;-68
2021/11/23 05:01:06;;;;;;;35.40;15.63;;;;;;;;;;4968920;28;20022;-67
2021/11/23 05:03:31;;;;;;;36.58;13.38;;;;;;;;;;4969298;28;20027;-67
2021/11/23 05:05:56;;;;;;;35.35;14.65;;;;;;;;;;4969357;28;20594;-67
2021/11/23 05:08:21;;;;;;;38.13;15.82;;;;;;;;;;4969137;28;20034;-67
2021/11/23 05:10:47;;;;;;;35.83;15.45;;;;;;;;;;4968663;28;20733;-67
2021/11/23 05:13:12;;;;;;;32.45;13.93;;;;;;;;;;4969130;28;20038;-68
2021/11/23 05:15:37;;;;;;;40.35;17.38;;;;;;;;;;4968126;28;20031;-67
2021/11/23 05:18:02;;;;;;;39.50;15.73;;;;;;;;;;4967111;28;20115;-67
2021/11/23 05:20:28;;;;;;;37.05;15.32;;;;;;;;;;4966460;28;20114;-67
2021/11/23 05:22:53;;;;;;;37.30;15.30;;;;;;;;;;4968915;28;20031;-65
2021/11/23 05:25:18;;;;;;;34.58;14.55;;;;;;;;;;4971157;28;20514;-67
2021/11/23 05:27:43;;;;;;;36.80;15.98;;;;;;;;;;4973022;28;20078;-67
2021/11/23 05:30:10;;;;;;;38.47;15.75;;;;;;;;;;4972715;28;20077;-67
2021/11/23 05:32:35;;;;;;;46.75;16.50;;;;;;;;;;4971967;28;20090;-68
2021/11/23 05:35:00;;;;;;;36.17;14.95;;;;;;;;;;4974333;28;20027;-67
2021/11/23 05:37:26;;;;;;;40.78;14.50;;;;;;;;;;4973418;28;20015;-66
2021/11/23 05:39:51;;;;;;;42.15;16.10;;;;;;;;;;4978632;28;20046;-67
2021/11/23 05:42:16;;;;;;;44.03;17.17;;;;;;;;;;4974286;28;20041;-66
2021/11/23 05:44:41;;;;;;;33.85;13.13;;;;;;;;;;4974577;28;20083;-67
2021/11/23 05:47:07;;;;;;;45.05;16.42;;;;;;;;;;4973970;28;20106;-67
2021/11/23 05:49:32;;;;;;;42.53;16.90;;;;;;;;;;4981302;28;20030;-66
2021/11/23 05:51:58;;;;;;;38.85;14.88;;;;;;;;;;4981838;28;20023;-67
2021/11/23 05:54:23;;;;;;;43.20;17.02;;;;;;;;;;4974368;28;20054;-67
2021/11/23 05:56:49;;;;;;;32.70;13.77;;;;;;;;;;4973897;28;20117;-67
2021/11/23 05:59:14;;;;;;;32.00;13.20;;;;;;;;;;4988763;28;20019;-68
2021/11/23 06:01:39;;;;;;;36.03;14.60;;;;;;;;;;4973184;28;20043;-67
2021/11/23 06:04:05;;;;;;;33.22;15.60;;;;;;;;;;4973629;28;20100;-67
2021/11/23 06:06:31;;;;;;;36.10;15.68;;;;;;;;;;4973926;28;20039;-66
2021/11/23 06:08:56;;;;;;;43.53;19.02;;;;;;;;;;4973904;28;20074;-67
2021/11/23 06:11:21;;;;;;;44.38;16.73;;;;;;;;;;4973041;28;20035;-68
2021/11/23 06:13:47;;;;;;;40.25;14.63;;;;;;;;;;4980705;28;20026;-68
2021/11/23 06:16:14;;;;;;;35.05;14.45;;;;;;;;;;4973372;28;20105;-68
2021/11/23 06:18:39;;;;;;;37.22;16.23;;;;;;;;;;4974267;28;20047;-68
2021/11/23 06:21:06;;;;;;;43.38;17.05;;;;;;;;;;4973386;28;20026;-68
2021/11/23 06:23:31;;;;;;;38.65;17.00;;;;;;;;;;4972730;28;20031;-68
2021/11/23 06:25:57;;;;;;;43.33;17.20;;;;;;;;;;4971436;28;20062;-68
2021/11/23 06:28:23;;;;;;;38.28;17.48;;;;;;;;;;4971584;28;20038;-69
2021/11/23 06:30:49;;;;;;;41.35;16.98;;;;;;;;;;4974443;28;20034;-67
2021/11/23 06:33:15;;;;;;;37.05;16.55;;;;;;;;;;4971251;28;20030;-68
2021/11/23 06:35:40;;;;;;;34.45;15.18;;;;;;;;;;4971046;28;20042;-67
2021/11/23 06:38:05;;;;;;;37.78;16.15;;;;;;;;;;4971767;28;20019;-69
2021/11/23 06:40:31;;;;;;;43.42;17.92;;;;;;;;;;4973046;28;20538;-68
2021/11/23 06:42:57;;;;;;;41.97;18.08;;;;;;;;;;4979482;28;20018;-67
2021/11/23 06:45:22;;;;;;;53.53;14.60;;;;;;;;;;4976761;28;20507;-68
2021/11/23 06:47:47;;;;;;;34.42;16.30;;;;;;;;;;4982858;28;20379;-67
2021/11/23 06:50:13;;;;;;;37.75;15.57;;;;;;;;;;4987488;28;20022;-68
2021/11/23 06:52:39;;;;;;;39.97;17.08;;;;;;;;;;4973217;28;20015;-68
2021/11/23 06:55:04;;;;;;;39.70;17.33;;;;;;;;;;4983821;28;20030;-66
2021/11/23 06:57:30;;;;;;;41.47;16.85;;;;;;;;;;4988944;28;20022;-68
2021/11/23 06:59:55;;;;;;;36.42;15.60;;;;;;;;;;4980190;28;20014;-68
2021/11/23 07:02:20;;;;;;;43.25;17.20;;;;;;;;;;4971094;28;20019;-68
2021/11/23 07:04:45;;;;;;;43.25;15.10;;;;;;;;;;4973155;28;20062;-68
2021/11/23 07:07:10;;;;;;;36.40;15.30;;;;;;;;;;4972712;28;20023;-67
2021/11/23 07:09:36;;;;;;;48.42;16.48;;;;;;;;;;4973311;28;20054;-68
2021/11/23 07:12:02;;;;;;;37.00;16.38;;;;;;;;;;4972949;28;20019;-68
2021/11/23 07:14:27;;;;;;;37.17;16.80;;;;;;;;;;4972812;28;20030;-68
2021/11/23 07:16:52;;;;;;;30.55;13.38;;;;;;;;;;4972515;28;20082;-68
2021/11/23 07:19:17;;;;;;;27.77;11.70;;;;;;;;;;4976411;28;20022;-68
2021/11/23 07:21:43;;;;;;;34.55;13.30;;;;;;;;;;4980148;28;20027;-68
2021/11/23 07:24:08;;;;;;;23.25;10.65;;;;;;;;;;4976095;28;20041;-68
2021/11/23 07:26:34;;;;;;;32.53;12.70;;;;;;;;;;4972759;28;20038;-67
2021/11/23 07:29:00;;;;;;;34.15;13.95;;;;;;;;;;4972682;28;20125;-68
2021/11/23 07:31:26;;;;;;;29.48;12.00;;;;;;;;;;4976608;28;20466;-68
2021/11/23 07:33:52;;;;;;;40.78;13.82;;;;;;;;;;4972416;28;20014;-67
2021/11/23 07:36:19;;;;;;;40.17;16.13;;;;;;;;;;4971093;28;20029;-68
2021/11/23 07:38:44;;;;;;;20.27;7.35;;;;;;;;;;4972391;28;20070;-68
2021/11/23 07:41:10;;;;;;;18.67;8.85;;;;;;;;;;4972240;28;20023;-67
2021/11/23 07:43:35;;;;;;;36.67;15.68;;;;;;;;;;4970820;28;20380;-69
2021/11/23 07:46:00;;;;;;;12.63;7.30;;;;;;;;;;4972325;28;20026;-68
2021/11/23 07:48:25;;;;;;;21.60;9.90;;;;;;;;;;4971616;28;20388;-68
2021/11/23 07:50:51;;;;;;;23.42;9.77;;;;;;;;;;4974146;28;20019;-68
2021/11/23 07:53:16;;;;;;;16.58;7.30;;;;;;;;;;4973073;28;20061;-68
2021/11/23 07:55:42;;;;;;;11.70;6.10;;;;;;;;;;4980582;28;20026;-68
2021/11/23 07:58:07;;;;;;;18.52;7.00;;;;;;;;;;4981823;28;20057;-68
2021/11/23 08:00:32;;;;;;;39.00;15.45;;;;;;;;;;4963392;28;20027;-67
2021/11/23 08:02:58;;;;;;;41.28;16.27;;;;;;;;;;4970109;28;20387;-67
2021/11/23 08:05:23;;;;;;;30.35;13.05;;;;;;;;;;4968199;28;20023;-67
2021/11/23 08:07:50;;;;;;;34.25;14.07;;;;;;;;;;4981617;28;20439;-68
2021/11/23 08:10:15;;;;;;;33.90;13.52;;;;;;;;;;4981106;28;20052;-68
2021/11/23 08:12:40;;;;;;;43.85;16.35;;;;;;;;;;4971630;28;20023;-67
2021/11/23 08:15:06;;;;;;;20.33;7.95;;;;;;;;;;4972019;28;20022;-68
2021/11/23 08:17:31;;;;;;;44.28;15.80;;;;;;;;;;4979145;28;20026;-68
2021/11/23 08:19:57;;;;;;;40.35;16.77;;;;;;;;;;4972480;28;20023;-67
2021/11/23 08:22:22;;;;;;;50.88;17.58;;;;;;;;;;4969893;28;20439;-68
2021/11/23 08:24:47;;;;;;;22.35;9.70;;;;;;;;;;4971848;28;20026;-68
2021/11/23 08:27:13;;;;;;;29.85;12.60;;;;;;;;;;4982794;28;20022;-68
2021/11/23 08:29:40;;;;;;;45.97;18.27;;;;;;;;;;4977930;28;20480;-66
2021/11/23 08:32:06;;;;;;;39.58;17.25;;;;;;;;;;4972551;28;20061;-66
2021/11/23 08:34:31;;;;;;;37.33;14.60;;;;;;;;;;4972325;28;20768;-66
2021/11/23 08:36:56;;;;;;;37.53;16.70;;;;;;;;;;4982005;28;20023;-65
2021/11/23 08:39:22;;;;;;;45.80;18.48;;;;;;;;;;4971158;28;20110;-67
2021/11/23 08:41:48;;;;;;;41.00;17.95;;;;;;;;;;4978722;28;20118;-66
2021/11/23 08:44:14;;;;;;;45.80;18.83;;;;;;;;;;4976718;28;20062;-66
2021/11/23 08:46:39;;;;;;;43.92;17.48;;;;;;;;;;4990969;28;20109;-66
2021/11/23 08:49:04;;;;;;;37.78;14.73;;;;;;;;;;4982587;28;20432;-66
2021/11/23 08:51:34;;;;;;;46.13;19.98;;;;;;;;;;4973565;28;20027;-66
2021/11/23 08:53:59;;;;;;;35.85;16.52;;;;;;;;;;4973928;28;20034;-65
2021/11/23 08:56:29;;;;;;;34.13;12.23;;;;;;;;;;4973187;28;20428;-65
2021/11/23 08:58:54;;;;;;;;;;;;;;;;;;4974623;28;20035;-66
2021/11/23 09:01:25;;;;;;;40.08;17.10;;;;;;;;;;4991133;28;20290;-66
2021/11/23 09:03:52;;;;;;;32.13;12.95;;;;;;;;;;4987208;28;20468;-65
2021/11/23 09:06:17;;;;;;;41.88;17.35;;;;;;;;;;4981331;28;20034;-66
2021/11/23 09:08:54;;;;;;;18.40;7.15;;;;;;;;;;4983390;28;20027;-67
2021/11/23 09:11:20;;;;;;;39.67;15.13;;;;;;;;;;4973909;28;20027;-65
2021/11/23 09:13:45;;;;;;;30.08;13.45;;;;;;;;;;4974772;28;20113;-66
2021/11/23 09:16:10;;;;;;;36.17;14.90;;;;;;;;;;4988579;28;20157;-66
2021/11/23 09:18:36;;;;;;;43.25;17.83;;;;;;;;;;4976060;28;20034;-65
2021/11/23 09:21:01;;;;;;;21.75;9.02;;;;;;;;;;4973451;28;20121;-66
2021/11/23 09:23:26;;;;;;;21.67;10.15;;;;;;;;;;4975070;28;20038;-65
2021/11/23 09:25:51;;;;;;;35.72;14.20;;;;;;;;;;4987703;28;20027;-67
2021/11/23 09:28:17;;;;;;;16.35;6.15;;;;;;;;;;4974551;28;20479;-66
2021/11/23 09:30:42;;;;;;;36.03;15.35;;;;;;;;;;4974087;28;20031;-66
2021/11/23 09:33:08;;;;;;;29.23;10.32;;;;;;;;;;4974417;28;20023;-65
2021/11/23 09:35:33;;;;;;;36.70;12.50;;;;;;;;;;4976860;28;20022;-65
2021/11/23 09:37:59;;;;;;;36.95;14.88;;;;;;;;;;4994547;28;20014;-66
2021/11/23 09:40:24;;;;;;;41.60;16.48;;;;;;;;;;4973922;28;20015;-66
2021/11/23 09:42:50;;;;;;;42.83;19.38;;;;;;;;;;4980418;28;20422;-66
2021/11/23 09:45:16;;;;;;;34.65;15.43;;;;;;;;;;4974214;28;20541;-65
2021/11/23 09:47:42;;;;;;;22.60;11.68;;;;;;;;;;4966337;28;20085;-66
2021/11/23 09:50:07;;;;;;;35.95;15.05;;;;;;;;;;4973910;28;20022;-66
2021/11/23 09:52:33;;;;;;;39.65;18.27;;;;;;;;;;4973735;28;20026;-66
2021/11/23 09:54:59;;;;;;;38.38;13.93;;;;;;;;;;4977413;28;20030;-66
2021/11/23 09:57:24;;;;;;;26.75;12.13;;;;;;;;;;4974291;28;20030;-66
2021/11/23 09:59:49;;;;;;;27.15;11.20;;;;;;;;;;4980693;28;20014;-67
2021/11/23 10:02:23;;;;;;;30.25;11.68;;;;;;;;;;4986316;28;20114;-67
2021/11/23 10:04:55;;;;;;;35.83;15.18;;;;;;;;;;4984656;28;20492;-66
2021/11/23 10:07:20;;;;;;;33.50;13.05;;;;;;;;;;4972317;28;20598;-66
2021/11/23 10:09:45;;;;;;;37.30;15.45;;;;;;;;;;4982836;28;20029;-66
2021/11/23 10:12:14;;;;;;;18.08;8.25;;;;;;;;;;4977669;28;20482;-66
2021/11/23 10:14:39;;;;;;;40.00;17.33;;;;;;;;;;4987024;28;20109;-67
2021/11/23 10:17:21;;;;;;;45.78;18.45;;;;;;;;;;4975316;28;20122;-66
2021/11/23 10:19:46;;;;;;;48.08;18.60;;;;;;;;;;4973836;28;20023;-66
2021/11/23 10:22:26;;;;;;;38.53;16.42;;;;;;;;;;4989059;28;20032;-67
2021/11/23 10:24:56;;;;;;;39.20;15.57;;;;;;;;;;4976652;28;20026;-67
2021/11/23 10:27:21;;;;;;;22.63;10.98;;;;;;;;;;4977083;28;20030;-66
2021/11/23 10:29:50;;;;;;;32.58;11.32;;;;;;;;;;4979720;28;20501;-65
2021/11/23 10:32:16;;;;;;;24.50;9.45;;;;;;;;;;4978041;28;20030;-68
2021/11/23 10:34:42;;;;;;;21.40;8.65;;;;;;;;;;4973803;28;20026;-66
2021/11/23 10:37:07;;;;;;;26.02;9.38;;;;;;;;;;4988733;28;20076;-66
2021/11/23 10:39:32;;;;;;;41.42;16.75;;;;;;;;;;4990889;28;20022;-66
2021/11/23 10:41:59;;;;;;;52.10;18.50;;;;;;;;;;4980352;28;20080;-66
2021/11/23 10:44:28;;;;;;;48.15;20.48;;;;;;;;;;4988862;28;20400;-67
2021/11/23 10:46:54;;;;;;;52.20;20.83;;;;;;;;;;4973362;28;20034;-66
2021/11/23 10:49:27;;;;;;;47.03;21.27;;;;;;;;;;4973758;28;20266;-65
2021/11/23 10:51:53;;;;;;;45.88;20.65;;;;;;;;;;4983960;28;20057;-66
2021/11/23 10:54:18;;;;;;;46.65;21.75;;;;;;;;;;4979736;28;20504;-66
2021/11/23 10:57:03;;;;;;;54.67;20.38;;;;;;;;;;4972493;28;20034;-66
2021/11/23 10:59:28;;;;;;;51.72;22.67;;;;;;;;;;4975351;28;20403;-66
2021/11/23 11:01:54;;;;;;;53.47;20.63;;;;;;;;;;4972284;28;20030;-66
2021/11/23 11:04:19;;;;;;;46.88;20.20;;;;;;;;;;4976426;28;20030;-66
2021/11/23 11:06:45;;;;;;;54.55;20.65;;;;;;;;;;4972806;28;20510;-66
2021/11/23 11:09:10;;;;;;;54.33;21.00;;;;;;;;;;4975542;28;20025;-66
2021/11/23 11:11:36;;;;;;;54.58;23.05;;;;;;;;;;4979444;28;20030;-66
2021/11/23 11:14:03;;;;;;;53.95;21.98;;;;;;;;;;4988645;28;20491;-66
2021/11/23 11:16:28;;;;;;;53.95;21.90;;;;;;;;;;4977745;28;20027;-66
2021/11/23 11:19:07;;;;;;;49.05;22.48;;;;;;;;;;4977887;28;20507;-68
2021/11/23 11:21:35;;;;;;;51.10;20.55;;;;;;;;;;4979288;28;20065;-66
2021/11/23 11:24:21;;;;;;;46.88;18.33;;;;;;;;;;4972768;28;20022;-66
2021/11/23 11:26:52;;;;;;;52.42;21.38;;;;;;;;;;4988094;28;20494;-66
2021/11/23 11:29:25;;;;;;;49.33;21.48;;;;;;;;;;4973759;28;20045;-68
2021/11/23 11:31:50;;;;;;;48.42;22.88;;;;;;;;;;4976897;28;20032;-66
2021/11/23 11:34:23;;;;;;;52.67;21.10;;;;;;;;;;4977788;28;20026;-67
2021/11/23 11:36:56;;;;;;;52.20;21.92;;;;;;;;;;4974461;28;20102;-66
2021/11/23 11:39:42;;;;;;;59.25;22.83;;;;;;;;;;4972953;28;20022;-66
2021/11/23 11:42:09;;;;;;;57.08;22.25;;;;;;;;;;4970412;28;20504;-66
2021/11/23 11:44:38;;;;;;;55.20;22.20;;;;;;;;;;4974069;28;20027;-66
2021/11/23 11:47:09;;;;;;;56.75;22.15;;;;;;;;;;4975777;28;20027;-67
2021/11/23 11:49:50;;;;;;;69.20;26.95;;;;;;;;;;4972469;28;20042;-67
2021/11/23 11:52:16;;;;;;;64.07;25.33;;;;;;;;;;4973990;28;20027;-66
2021/11/23 11:54:43;;;;;;;60.63;28.13;;;;;;;;;;4975010;28;20027;-66
2021/11/23 11:57:28;;;;;;;69.78;27.40;;;;;;;;;;4977081;28;20029;-66
2021/11/23 11:59:53;;;;;;;70.93;27.73;;;;;;;;;;4978517;28;20027;-67
2021/11/23 12:02:20;;;;;;;58.78;25.58;;;;;;;;;;4983823;28;20018;-67
2021/11/23 12:04:56;;;;;;;61.67;25.60;;;;;;;;;;4972091;28;20086;-67
2021/11/23 12:07:22;;;;;;;68.95;26.38;;;;;;;;;;4979710;28;20018;-66
2021/11/23 12:09:49;;;;;;;67.28;27.00;;;;;;;;;;4982646;28;20033;-67
2021/11/23 12:12:14;;;;;;;56.28;25.55;;;;;;;;;;4971807;28;20022;-66
2021/11/23 12:14:51;;;;;;;65.53;28.63;;;;;;;;;;4972298;28;20027;-68
2021/11/23 12:17:23;;;;;;;60.03;24.98;;;;;;;;;;4972364;28;20297;-66
2021/11/23 12:20:08;;;;;;;54.85;22.40;;;;;;;;;;4974506;28;20022;-66
2021/11/23 12:22:41;;;;;;;65.78;25.63;;;;;;;;;;4981175;28;20086;-66
2021/11/23 12:25:07;;;;;;;61.50;25.50;;;;;;;;;;4974368;28;20026;-67
2021/11/23 12:27:33;;;;;;;63.85;24.38;;;;;;;;;;4971874;28;20022;-66
2021/11/23 12:29:58;;;;;;;67.00;27.02;;;;;;;;;;4978263;28;20110;-66
2021/11/23 12:32:28;;;;;;;61.50;27.20;;;;;;;;;;4979759;28;20556;-67
2021/11/23 12:34:54;;;;;;;64.35;28.17;;;;;;;;;;4988723;28;20019;-66
2021/11/23 12:37:29;;;;;;;76.97;29.02;;;;;;;;;;4980097;28;20471;-66
2021/11/23 12:39:56;;;;;;;78.47;28.02;;;;;;;;;;4978661;28;20080;-67
2021/11/23 12:42:21;;;;;;;73.68;28.80;;;;;;;;;;4973588;28;20018;-67
2021/11/23 12:44:47;;;;;;;70.10;26.98;;;;;;;;;;4991049;28;20026;-67
2021/11/23 12:47:17;;;;;;;58.97;24.65;;;;;;;;;;4980721;28;20484;-66
2021/11/23 12:49:43;;;;;;;61.55;25.50;;;;;;;;;;4974575;28;20539;-67
2021/11/23 12:52:09;;;;;;;57.75;25.77;;;;;;;;;;4977940;28;20030;-66
2021/11/23 12:54:36;;;;;;;65.70;27.65;;;;;;;;;;4987741;28;20027;-66
2021/11/23 12:57:04;;;;;;;67.47;28.55;;;;;;;;;;4969370;28;20105;-66
2021/11/23 12:59:38;;;;;;;63.75;28.35;;;;;;;;;;4989200;28;20038;-67
2021/11/23 13:02:24;;;;;;;58.92;27.52;;;;;;;;;;4972544;28;20106;-66
2021/11/23 13:04:50;;;;;;;66.15;29.35;;;;;;;;;;4968359;28;20026;-66
2021/11/23 13:07:15;;;;;;;66.68;29.52;;;;;;;;;;4970553;28;20034;-66
2021/11/23 13:09:58;;;;;;;70.38;28.38;;;;;;;;;;4971022;28;20030;-66
2021/11/23 13:12:24;;;;;;;76.00;28.83;;;;;;;;;;4970578;28;20027;-68
2021/11/23 13:14:51;;;;;;;69.05;27.55;;;;;;;;;;4970942;28;20031;-67
2021/11/23 13:17:16;;;;;;;63.60;28.83;;;;;;;;;;4970255;28;20027;-66
2021/11/23 13:19:51;;;;;;;73.72;28.52;;;;;;;;;;4971554;28;20341;-68
2021/11/23 13:22:17;;;;;;;71.82;25.77;;;;;;;;;;4976528;28;20034;-66
2021/11/23 13:24:42;;;;;;;70.95;27.40;;;;;;;;;;4971438;28;20031;-68
2021/11/23 13:27:08;;;;;;;71.45;27.38;;;;;;;;;;4971489;28;20065;-68
2021/11/23 13:29:33;;;;;;;64.20;26.77;;;;;;;;;;4978784;28;20030;-66
2021/11/23 13:31:58;;;;;;;79.35;28.20;;;;;;;;;;4979545;28;20093;-67
2021/11/23 13:34:23;;;;;;;73.50;28.40;;;;;;;;;;4985698;28;20037;-66
2021/11/23 13:36:53;;;;;;;72.57;28.58;;;;;;;;;;4973939;28;20623;-66
2021/11/23 13:39:19;;;;;;;71.70;28.57;;;;;;;;;;4983049;28;20148;-66
2021/11/23 13:41:49;;;;;;;74.50;26.75;;;;;;;;;;4974108;28;20118;-66
2021/11/23 13:44:27;;;;;;;66.30;26.27;;;;;;;;;;4972024;28;20022;-67
2021/11/23 13:47:01;;;;;;;70.38;26.70;;;;;;;;;;4975521;28;20023;-68
2021/11/23 13:49:32;;;;;;;71.07;31.10;;;;;;;;;;4990058;28;20490;-67
2021/11/23 13:52:16;;;;;;;69.78;24.52;;;;;;;;;;4975080;28;20025;-67
2021/11/23 13:54:42;;;;;;;77.10;24.45;;;;;;;;;;4985501;28;20031;-68
2021/11/23 13:57:12;;;;;;;70.10;24.55;;;;;;;;;;4983790;28;20380;-67
2021/11/23 13:59:37;;;;;;;74.38;27.95;;;;;;;;;;4985724;28;20034;-67
2021/11/23 14:02:02;;;;;;;68.85;25.90;;;;;;;;;;4985167;28;20030;-67
2021/11/23 14:04:29;;;;;;;77.43;27.67;;;;;;;;;;4985073;28;20046;-67
2021/11/23 14:06:58;;;;;;;67.30;24.25;;;;;;;;;;4981131;28;20506;-68
2021/11/23 14:09:23;;;;;;;73.65;23.33;;;;;;;;;;4969607;28;20030;-67
2021/11/23 14:12:02;;;;;;;69.75;26.50;;;;;;;;;;4990631;28;20022;-67
2021/11/23 14:14:28;;;;;;;61.70;21.13;;;;;;;;;;4991898;28;20076;-67